Time;durP1;ratioP1;P1;durP2;ratioP2;P2;SDS_P1;SDS_P2;PMS_P1;PMS_P2;Temp;Humidity;BMP_temperature;BMP_pressure;BME280_temperature;BME280_humidity;BME280_pressure;Samples;Min_cycle;Max_cycle;Signal;HPM_P1;HPM_P2
2023/12/21 00:01:33;;;;;;;1.02;0.77;;;;;;;7.21;67.42;99291.53;10503980;28;20074;-67
2023/12/21 00:06:35;;;;;;;0.57;0.30;;;;;;;7.20;67.76;99284.69;10503994;28;20039;-67
2023/12/21 00:11:37;;;;;;;0.52;0.50;;;;;;;6.94;69.29;99288.72;10503540;28;20514;-67
2023/12/21 00:16:40;;;;;;;0.68;0.68;;;;;;;7.10;68.41;99257.53;10503468;28;20866;-67
2023/12/21 00:21:42;;;;;;;0.40;0.40;;;;;;;7.13;68.32;99241.72;10502178;28;20052;-67
2023/12/21 00:26:44;;;;;;;0.50;0.50;;;;;;;7.19;68.23;99226.63;10502808;28;20070;-67
2023/12/21 00:31:46;;;;;;;0.80;0.60;;;;;;;7.03;69.02;99209.38;10503380;28;20113;-67
2023/12/21 00:36:48;;;;;;;0.50;0.50;;;;;;;7.30;67.99;99210.41;10502372;28;20060;-67
2023/12/21 00:41:50;;;;;;;0.57;0.52;;;;;;;7.23;68.41;99197.81;10484162;28;20446;-67
2023/12/21 00:46:52;;;;;;;0.50;0.50;;;;;;;7.36;67.89;99207.44;10489207;28;20056;-66
2023/12/21 00:51:54;;;;;;;1.00;0.73;;;;;;;7.49;67.56;99194.56;10514180;28;20559;-66
2023/12/21 00:56:56;;;;;;;0.47;0.47;;;;;;;7.47;67.54;99178.22;10510930;28;20052;-66
2023/12/21 01:01:58;;;;;;;0.63;0.52;;;;;;;7.37;67.94;99175.28;10512664;28;20047;-66
2023/12/21 01:07:03;;;;;;;1.05;0.68;;;;;;;7.37;67.96;99180.50;10512556;28;20109;-66
2023/12/21 01:12:06;;;;;;;1.20;0.65;;;;;;;7.48;67.62;99170.31;10510717;28;20562;-67
2023/12/21 01:17:08;;;;;;;0.98;0.50;;;;;;;7.34;68.07;99162.47;10512323;28;20400;-67
2023/12/21 01:22:10;;;;;;;0.88;0.70;;;;;;;7.39;68.05;99150.03;10512370;28;20056;-67
2023/12/21 01:27:12;;;;;;;0.50;0.50;;;;;;;7.40;68.05;99136.09;10492845;28;20047;-66
2023/12/21 01:32:30;;;;;;;0.73;0.60;;;;;;;7.57;67.41;99129.91;10493435;28;20146;-67
2023/12/21 01:37:32;;;;;;;0.63;0.63;;;;;;;7.67;67.22;99147.44;10513138;28;20054;-66
2023/12/21 01:42:35;;;;;;;1.67;0.60;;;;;;;7.70;66.98;99126.47;10525915;28;20055;-66
2023/12/21 01:47:37;;;;;;;1.23;0.43;;;;;;;7.66;67.36;99114.56;10512046;28;20043;-66
2023/12/21 01:52:39;;;;;;;0.20;0.20;;;;;;;7.72;67.42;99127.19;10484859;28;20106;-66
2023/12/21 01:57:43;;;;;;;0.17;0.17;;;;;;;7.65;67.79;99119.88;10518680;28;20043;-66
2023/12/21 02:02:46;;;;;;;1.02;0.55;;;;;;;7.53;68.55;99120.63;10499067;28;20423;-66
2023/12/21 02:07:48;;;;;;;0.20;0.20;;;;;;;7.65;68.14;99102.47;10518718;28;20885;-66
2023/12/21 02:12:50;;;;;;;0.15;0.15;;;;;;;7.70;68.00;99079.63;10484552;28;20043;-66
2023/12/21 02:17:54;;;;;;;0.30;0.30;;;;;;;7.68;68.00;99072.81;10517787;28;20295;-67
2023/12/21 02:22:59;;;;;;;0.80;0.32;;;;;;;7.67;68.10;99045.97;10500471;28;20148;-66
2023/12/21 02:28:01;;;;;;;0.25;0.25;;;;;;;7.74;68.08;99043.81;10516966;28;20038;-66
2023/12/21 02:33:03;;;;;;;0.80;0.52;;;;;;;7.82;67.67;99045.03;10517740;28;20036;-67
2023/12/21 02:38:06;;;;;;;2.53;0.73;;;;;;;7.75;67.91;99043.72;10516624;28;20067;-66
2023/12/21 02:43:07;;;;;;;0.30;0.30;;;;;;;7.90;67.58;99047.13;10498154;28;20047;-66
2023/12/21 02:48:10;;;;;;;0.47;0.20;;;;;;;7.81;67.85;99032.09;10484389;28;20047;-66
2023/12/21 02:53:12;;;;;;;0.45;0.28;;;;;;;7.94;67.61;99010.41;10516263;28;20074;-66
2023/12/21 02:58:14;;;;;;;0.45;0.40;;;;;;;7.86;67.81;99025.66;10516826;28;20040;-66
2023/12/21 03:03:16;;;;;;;1.65;0.30;;;;;;;8.04;67.21;99013.25;10517163;28;20051;-66
2023/12/21 03:08:18;;;;;;;0.13;0.13;;;;;;;7.97;67.21;98986.78;10516824;28;20036;-66
2023/12/21 03:13:20;;;;;;;0.17;0.17;;;;;;;8.03;67.07;98985.56;10517173;28;20074;-66
2023/12/21 03:18:22;;;;;;;0.10;0.10;;;;;;;8.07;66.92;98973.16;10515487;28;20040;-66
2023/12/21 03:23:24;;;;;;;0.10;0.10;;;;;;;7.97;66.97;98985.94;10515311;28;20044;-66
2023/12/21 03:28:26;;;;;;;0.20;0.20;;;;;;;8.03;67.23;98968.16;10517357;28;20044;-66
2023/12/21 03:33:28;;;;;;;0.20;0.20;;;;;;;8.08;66.84;98977.44;10513592;28;20085;-66
2023/12/21 03:38:30;;;;;;;0.10;0.10;;;;;;;8.06;67.07;98942.88;10515700;28;20122;-66
2023/12/21 03:43:32;;;;;;;1.35;0.22;;;;;;;8.21;66.72;98939.28;10514590;28;20408;-66
2023/12/21 03:48:34;;;;;;;0.20;0.20;;;;;;;8.25;66.68;98938.13;10530818;27;20040;-66
2023/12/21 03:53:36;;;;;;;0.10;0.10;;;;;;;8.22;66.75;98935.75;10512682;28;20048;-66
2023/12/21 03:58:38;;;;;;;0.20;0.20;;;;;;;8.17;66.71;98919.56;10515196;28;20044;-66
2023/12/21 04:03:40;;;;;;;0.20;0.20;;;;;;;8.15;66.99;98908.41;10509554;28;20334;-66
2023/12/21 04:08:42;;;;;;;0.10;0.10;;;;;;;8.22;66.90;98886.25;10496796;28;20040;-66
2023/12/21 04:13:47;;;;;;;0.30;0.30;;;;;;;8.10;67.43;98867.06;10494609;28;20093;-66
2023/12/21 04:18:49;;;;;;;0.10;0.10;;;;;;;8.19;67.09;98850.81;10513375;28;20048;-66
2023/12/21 04:23:51;;;;;;;0.20;0.20;;;;;;;8.12;67.07;98853.97;10482040;28;20054;-66
2023/12/21 04:28:53;;;;;;;0.20;0.20;;;;;;;8.23;66.77;98846.25;10513503;28;20421;-66
2023/12/21 04:33:55;;;;;;;0.50;0.50;;;;;;;8.28;66.58;98839.78;10513037;28;20123;-66
2023/12/21 04:38:57;;;;;;;0.10;0.10;;;;;;;8.31;66.50;98833.53;10514589;28;20052;-66
2023/12/21 04:44:00;;;;;;;0.88;0.20;;;;;;;8.38;66.32;98816.56;10513024;28;20734;-67
2023/12/21 04:49:02;;;;;;;0.20;0.20;;;;;;;8.35;66.15;98801.97;10479480;28;20048;-67
2023/12/21 04:54:04;;;;;;;0.10;0.10;;;;;;;8.36;66.13;98782.81;10507402;28;20396;-67
2023/12/21 04:59:07;;;;;;;0.25;0.25;;;;;;;8.40;65.92;98780.81;10515018;28;20051;-66
2023/12/21 05:04:10;;;;;;;0.10;0.10;;;;;;;8.42;65.83;98755.50;10495380;28;20451;-67
2023/12/21 05:09:12;;;;;;;0.10;0.10;;;;;;;8.45;65.71;98755.25;10496518;28;20121;-67
2023/12/21 05:14:14;;;;;;;0.15;0.15;;;;;;;8.43;65.61;98759.75;10513412;28;20101;-66
2023/12/21 05:19:16;;;;;;;0.10;0.10;;;;;;;8.50;65.72;98747.97;10514339;28;20052;-66
2023/12/21 05:24:18;;;;;;;0.17;0.17;;;;;;;8.38;65.72;98730.59;10520439;28;20044;-66
2023/12/21 05:29:20;;;;;;;0.20;0.20;;;;;;;8.55;65.56;98740.66;10521331;28;20068;-66
2023/12/21 05:34:22;;;;;;;0.20;0.20;;;;;;;8.53;65.58;98730.34;10520438;28;20412;-67
2023/12/21 05:39:25;;;;;;;0.10;0.10;;;;;;;8.50;65.43;98711.50;10502637;28;20052;-66
2023/12/21 05:44:27;;;;;;;0.28;0.28;;;;;;;8.59;65.19;98703.84;10518321;28;20510;-66
2023/12/21 05:49:29;;;;;;;0.10;0.10;;;;;;;8.65;65.01;98682.56;10519353;28;20226;-67
2023/12/21 05:54:31;;;;;;;0.15;0.15;;;;;;;8.63;65.18;98673.19;10521007;28;20044;-67
2023/12/21 05:59:33;;;;;;;0.10;0.10;;;;;;;8.65;65.08;98655.66;10518075;28;20044;-67
2023/12/21 06:04:35;;;;;;;0.43;0.43;;;;;;;8.63;65.10;98647.13;10517128;28;20047;-66
2023/12/21 06:09:37;;;;;;;0.45;0.45;;;;;;;8.66;64.83;98657.34;10519371;28;20062;-67
2023/12/21 06:14:39;;;;;;;0.32;0.32;;;;;;;8.73;64.83;98648.13;10518115;28;20075;-68
2023/12/21 06:19:42;;;;;;;0.20;0.20;;;;;;;8.55;65.35;98618.16;10514334;28;20040;-67
2023/12/21 06:24:44;;;;;;;0.20;0.20;;;;;;;8.58;65.02;98624.03;10519263;28;20488;-68
2023/12/21 06:29:46;;;;;;;0.28;0.28;;;;;;;8.80;64.72;98636.31;10518229;28;20051;-67
2023/12/21 06:34:48;;;;;;;0.20;0.20;;;;;;;8.73;65.06;98622.06;10510421;28;20211;-67
2023/12/21 06:39:50;;;;;;;0.30;0.30;;;;;;;8.73;65.19;98627.25;10516336;28;20817;-67
2023/12/21 06:44:52;;;;;;;0.22;0.20;;;;;;;8.74;65.28;98613.31;10515013;28;20044;-67
2023/12/21 06:49:54;;;;;;;0.28;0.28;;;;;;;8.77;65.31;98621.72;10517368;28;20036;-67
2023/12/21 06:54:57;;;;;;;0.32;0.32;;;;;;;8.67;65.60;98632.91;10516922;28;20346;-67
2023/12/21 06:59:59;;;;;;;0.47;0.20;;;;;;;8.70;65.54;98623.13;10515814;28;20504;-67
2023/12/21 07:05:01;;;;;;;0.30;0.30;;;;;;;8.93;65.05;98631.88;10517294;28;20052;-67
2023/12/21 07:10:04;;;;;;;0.10;0.10;;;;;;;8.87;65.03;98608.88;10516287;28;20050;-69
2023/12/21 07:15:06;;;;;;;0.20;0.20;;;;;;;8.86;64.94;98596.75;10516775;28;20047;-68
2023/12/21 07:20:09;;;;;;;0.35;0.35;;;;;;;8.82;65.43;98590.09;10531138;27;20044;-68
2023/12/21 07:25:11;;;;;;;0.20;0.20;;;;;;;8.73;65.87;98585.56;10516753;28;20508;-69
2023/12/21 07:30:13;;;;;;;0.20;0.20;;;;;;;8.89;65.34;98562.66;10515366;28;20048;-68
2023/12/21 07:35:15;;;;;;;0.20;0.20;;;;;;;8.79;65.89;98567.69;10492436;28;20776;-74
2023/12/21 07:40:17;;;;;;;0.10;0.10;;;;;;;8.87;65.44;98550.66;10512108;28;20036;-76
2023/12/21 07:45:19;;;;;;;0.20;0.20;;;;;;;8.87;65.56;98545.47;10494707;28;20060;-76
2023/12/21 07:50:22;;;;;;;0.40;0.22;;;;;;;8.83;65.67;98550.06;10488178;28;20072;-75
2023/12/21 07:55:24;;;;;;;0.20;0.20;;;;;;;9.03;65.19;98552.03;10493373;28;20063;-76
2023/12/21 08:00:26;;;;;;;0.15;0.15;;;;;;;9.09;64.93;98548.94;10486162;28;20970;-76
2023/12/21 08:05:29;;;;;;;0.30;0.30;;;;;;;9.07;64.95;98545.63;10508229;28;20054;-75
2023/12/21 08:10:31;;;;;;;0.25;0.25;;;;;;;9.16;64.88;98538.88;10491754;28;20040;-76
2023/12/21 08:15:33;;;;;;;0.52;0.20;;;;;;;9.09;65.12;98524.66;10492044;28;20143;-76
2023/12/21 08:20:36;;;;;;;0.25;0.25;;;;;;;9.15;65.15;98506.75;10520312;27;20134;-76
2023/12/21 08:25:38;;;;;;;0.38;0.38;;;;;;;9.04;65.47;98485.88;10508512;28;20556;-75
2023/12/21 08:30:41;;;;;;;0.25;0.25;;;;;;;9.08;65.28;98456.00;10505971;28;20052;-76
2023/12/21 08:35:43;;;;;;;0.10;0.10;;;;;;;9.09;65.16;98452.47;10492605;28;20151;-75
2023/12/21 08:40:47;;;;;;;0.30;0.30;;;;;;;9.14;64.89;98434.66;10509622;28;20223;-77
2023/12/21 08:45:49;;;;;;;0.13;0.13;;;;;;;9.17;64.83;98403.13;10507192;28;20079;-74
2023/12/21 08:50:51;;;;;;;0.40;0.40;;;;;;;9.23;64.87;98407.03;10494617;28;20047;-76
2023/12/21 08:55:53;;;;;;;0.30;0.22;;;;;;;9.30;64.41;98382.94;10494460;28;20346;-73
2023/12/21 09:00:58;;;;;;;0.10;0.10;;;;;;;9.35;64.03;98348.69;10510254;28;20052;-76
2023/12/21 09:06:01;;;;;;;0.10;0.10;;;;;;;9.38;64.23;98372.72;10510835;28;20047;-76
2023/12/21 09:11:03;;;;;;;0.38;0.38;;;;;;;9.52;63.76;98354.19;10490743;28;20591;-76
2023/12/21 09:16:05;;;;;;;0.15;0.15;;;;;;;9.62;63.61;98336.03;10471022;28;20040;-75
2023/12/21 09:21:07;;;;;;;0.30;0.30;;;;;;;9.70;63.56;98327.59;10505326;28;20051;-76
2023/12/21 09:26:10;;;;;;;0.50;0.50;;;;;;;9.50;63.70;98322.16;10509799;28;20112;-76
2023/12/21 09:31:12;;;;;;;0.30;0.30;;;;;;;9.39;64.09;98319.63;10472304;28;20131;-75
2023/12/21 09:36:15;;;;;;;0.35;0.35;;;;;;;9.45;64.10;98298.25;10501597;28;20060;-75
2023/12/21 09:41:17;;;;;;;1.67;0.65;;;;;;;9.67;63.68;98288.72;10485253;28;20717;-75
2023/12/21 09:46:21;;;;;;;1.23;0.73;;;;;;;9.74;63.53;98284.63;10484535;28;20480;-75
2023/12/21 09:51:24;;;;;;;1.00;0.68;;;;;;;9.65;63.71;98279.19;10488967;28;20131;-75
2023/12/21 09:56:28;;;;;;;0.68;0.47;;;;;;;9.69;64.59;98289.41;10508157;28;20044;-75
2023/12/21 10:01:34;;;;;;;0.55;0.32;;;;;;;9.50;65.59;98293.47;10504913;28;20483;-75
2023/12/21 10:06:37;;;;;;;0.45;0.38;;;;;;;9.38;66.42;98280.59;10490836;28;20652;-75
2023/12/21 10:11:40;;;;;;;0.30;0.30;;;;;;;9.23;67.23;98272.25;10513847;28;20435;-75
2023/12/21 10:16:43;;;;;;;0.38;0.38;;;;;;;9.16;67.96;98268.44;10515351;28;20055;-75
2023/12/21 10:21:46;;;;;;;0.45;0.30;;;;;;;9.09;68.44;98254.25;10513645;28;20079;-75
2023/12/21 10:26:48;;;;;;;0.10;0.10;;;;;;;9.15;68.43;98245.94;10513923;28;20169;-76
2023/12/21 10:31:52;;;;;;;0.70;0.50;;;;;;;9.01;69.66;98241.00;10494409;28;20476;-76
2023/12/21 10:36:56;;;;;;;0.25;0.25;;;;;;;9.00;69.94;98215.88;10496337;28;20058;-76
2023/12/21 10:41:58;;;;;;;0.20;0.20;;;;;;;8.86;70.30;98190.09;10494015;28;20048;-74
2023/12/21 10:47:01;;;;;;;0.10;0.10;;;;;;;8.88;70.68;98184.72;10511176;28;20048;-74
2023/12/21 10:52:05;;;;;;;0.17;0.17;;;;;;;8.89;70.50;98179.41;10491868;28;20094;-74
2023/12/21 10:57:08;;;;;;;0.38;0.30;;;;;;;8.88;70.83;98169.94;10526928;27;20048;-76
2023/12/21 11:02:13;;;;;;;1.48;0.60;;;;;;;8.88;70.59;98169.94;10507322;28;20480;-76
2023/12/21 11:07:17;;;;;;;2.00;0.60;;;;;;;8.96;70.63;98156.28;10487823;28;20048;-75
2023/12/21 11:12:19;;;;;;;0.65;0.47;;;;;;;9.10;70.03;98155.97;10490308;28;20496;-74
2023/12/21 11:17:21;;;;;;;0.50;0.50;;;;;;;8.94;70.54;98127.72;10511084;28;20040;-74
2023/12/21 11:22:24;;;;;;;0.30;0.30;;;;;;;8.85;71.15;98105.03;10472764;28;20055;-74
2023/12/21 11:27:26;;;;;;;0.35;0.32;;;;;;;8.87;70.85;98095.31;10490857;28;20043;-76
2023/12/21 11:32:28;;;;;;;0.45;0.40;;;;;;;9.05;70.51;98099.00;10486473;28;20130;-74
2023/12/21 11:37:33;;;;;;;1.10;0.40;;;;;;;9.05;70.93;98092.94;10488825;28;20056;-73
2023/12/21 11:42:36;;;;;;;0.20;0.20;;;;;;;9.01;71.18;98092.38;10523313;27;20050;-74
2023/12/21 11:47:38;;;;;;;0.30;0.30;;;;;;;9.06;71.09;98082.38;10505850;28;20051;-73
2023/12/21 11:52:40;;;;;;;0.10;0.10;;;;;;;9.08;71.30;98088.31;10505041;28;20036;-73
2023/12/21 11:57:43;;;;;;;1.20;0.70;;;;;;;9.08;71.26;98087.47;10510387;28;20518;-75
2023/12/21 12:02:47;;;;;;;0.10;0.10;;;;;;;9.06;71.58;98079.78;10508451;28;20127;-73
2023/12/21 12:07:54;;;;;;;0.60;0.60;;;;;;;9.04;71.85;98070.41;10519473;28;20044;-74
2023/12/21 12:12:56;;;;;;;2.65;0.40;;;;;;;9.03;72.28;98038.34;10502962;28;20447;-74
2023/12/21 12:17:58;;;;;;;0.57;0.38;;;;;;;9.11;72.04;98019.44;10504220;28;20067;-74
2023/12/21 12:23:00;;;;;;;1.63;1.00;;;;;;;9.19;71.56;98028.28;10506550;28;20040;-74
2023/12/21 12:28:04;;;;;;;0.50;0.38;;;;;;;9.10;72.18;98043.84;10488806;28;20765;-75
2023/12/21 12:33:06;;;;;;;0.32;0.32;;;;;;;9.18;71.82;98037.03;10484192;28;20052;-75
2023/12/21 12:38:09;;;;;;;0.82;0.63;;;;;;;9.23;71.58;98034.03;10500251;28;20048;-73
2023/12/21 12:43:11;;;;;;;2.05;0.65;;;;;;;9.35;71.43;98039.06;10503223;28;20048;-74
2023/12/21 12:48:16;;;;;;;0.75;0.50;;;;;;;9.37;71.19;98037.16;10476648;28;20063;-74
2023/12/21 12:53:20;;;;;;;0.45;0.40;;;;;;;9.31;71.88;98034.22;10491798;28;20084;-74
2023/12/21 12:58:24;;;;;;;0.75;0.60;;;;;;;9.42;71.47;98026.31;10495341;28;20051;-73
2023/12/21 13:03:26;;;;;;;0.68;0.60;;;;;;;9.58;70.94;98011.00;10494944;28;20116;-74
2023/12/21 13:08:28;;;;;;;0.88;0.47;;;;;;;9.68;70.43;98030.16;10473048;28;20050;-74
2023/12/21 13:13:30;;;;;;;0.63;0.38;;;;;;;9.69;70.51;98041.44;10474805;28;20048;-73
2023/12/21 13:18:34;;;;;;;0.30;0.30;;;;;;;9.47;71.32;98060.66;10476728;28;20044;-73
2023/12/21 13:23:36;;;;;;;1.35;0.50;;;;;;;9.59;71.15;98010.03;10475291;28;20056;-73
2023/12/21 13:28:41;;;;;;;0.40;0.40;;;;;;;9.88;70.25;97997.09;10494052;28;21367;-74
2023/12/21 13:33:44;;;;;;;0.57;0.47;;;;;;;9.82;69.72;97985.41;10493484;28;20040;-74
2023/12/21 13:38:47;;;;;;;2.90;1.42;;;;;;;9.93;69.35;97998.34;10502022;28;20101;-72
2023/12/21 13:43:49;;;;;;;0.70;0.70;;;;;;;10.14;69.10;97986.03;10503806;28;20468;-73
2023/12/21 13:48:54;;;;;;;1.13;0.80;;;;;;;10.14;68.69;97991.25;10490357;28;20055;-74
2023/12/21 13:53:56;;;;;;;1.05;0.73;;;;;;;10.22;68.64;97965.25;10492781;28;20640;-74
2023/12/21 13:59:00;;;;;;;0.88;0.60;;;;;;;10.16;68.44;97954.53;10494846;28;20040;-73
2023/12/21 14:04:03;;;;;;;1.67;0.80;;;;;;;10.17;68.32;97950.97;10510744;28;20464;-73
2023/12/21 14:09:06;;;;;;;1.50;0.68;;;;;;;10.08;68.29;97938.72;10495090;28;20047;-73
2023/12/21 14:14:08;;;;;;;3.78;1.52;;;;;;;10.04;68.36;97924.28;10511993;28;20063;-74
2023/12/21 14:19:11;;;;;;;2.25;1.20;;;;;;;10.18;67.45;97942.16;10512661;28;20150;-72
2023/12/21 14:24:13;;;;;;;1.88;1.10;;;;;;;10.42;66.39;97945.19;10495068;28;20047;-72
2023/12/21 14:29:15;;;;;;;1.08;0.70;;;;;;;10.46;66.26;97936.13;10511497;28;20714;-72
2023/12/21 14:34:19;;;;;;;0.30;0.30;;;;;;;10.50;65.70;97932.28;10511992;28;20181;-73
2023/12/21 14:39:22;;;;;;;2.92;0.57;;;;;;;10.47;64.53;97927.31;10511110;28;20983;-73
2023/12/21 14:44:25;;;;;;;2.35;1.08;;;;;;;10.55;64.03;97914.38;10511888;28;20048;-74
2023/12/21 14:49:27;;;;;;;1.77;0.63;;;;;;;10.69;64.35;97931.38;10526411;28;20040;-73
2023/12/21 14:54:29;;;;;;;1.52;0.70;;;;;;;10.39;63.16;97951.53;10511708;28;20123;-74
2023/12/21 14:59:34;;;;;;;0.60;0.50;;;;;;;10.44;63.66;97932.78;10514953;28;20127;-73
2023/12/21 15:04:36;;;;;;;1.23;0.50;;;;;;;10.34;62.83;97919.75;10513147;28;20411;-73
2023/12/21 15:09:38;;;;;;;1.15;0.82;;;;;;;10.26;62.64;97942.28;10513394;28;20139;-72
2023/12/21 15:14:40;;;;;;;0.70;0.55;;;;;;;10.20;63.35;97914.13;10506305;28;20416;-72
2023/12/21 15:19:42;;;;;;;0.60;0.50;;;;;;;10.12;63.51;97917.41;10491592;28;20129;-72
2023/12/21 15:24:44;;;;;;;1.13;0.50;;;;;;;10.14;63.17;97946.00;10492004;28;20044;-72
2023/12/21 15:29:46;;;;;;;0.30;0.30;;;;;;;10.25;63.34;97932.81;10510298;28;20144;-72
2023/12/21 15:34:48;;;;;;;0.57;0.52;;;;;;;10.12;62.72;97912.19;10512059;28;20044;-72
2023/12/21 15:39:50;;;;;;;0.60;0.50;;;;;;;10.19;62.30;97881.97;10488893;28;20553;-72
2023/12/21 15:44:52;;;;;;;0.75;0.65;;;;;;;10.18;61.53;97923.88;10508468;28;20036;-72
2023/12/21 15:49:55;;;;;;;1.42;0.73;;;;;;;10.17;61.51;97920.47;10509500;28;20227;-72
2023/12/21 15:54:58;;;;;;;1.70;0.85;;;;;;;10.38;61.03;97922.91;10488882;28;20055;-72
2023/12/21 16:00:02;;;;;;;1.00;0.50;;;;;;;10.41;57.96;97943.53;10491783;28;20040;-72
2023/12/21 16:05:10;;;;;;;1.58;0.73;;;;;;;10.41;58.54;97940.94;10491870;28;20610;-72
2023/12/21 16:10:12;;;;;;;2.38;0.73;;;;;;;10.50;57.72;97937.50;10509754;28;20051;-71
2023/12/21 16:15:15;;;;;;;1.08;0.20;;;;;;;10.54;57.44;97958.94;10491534;28;20067;-72
2023/12/21 16:20:19;;;;;;;1.15;0.55;;;;;;;10.54;56.48;97959.78;10508895;28;20046;-73
2023/12/21 16:25:21;;;;;;;0.50;0.50;;;;;;;10.39;56.64;97961.16;10491048;28;20047;-72
2023/12/21 16:30:23;;;;;;;2.10;0.80;;;;;;;10.54;57.33;97959.78;10508144;28;20481;-72
2023/12/21 16:35:25;;;;;;;1.67;0.73;;;;;;;10.34;59.11;97984.22;10507439;28;20048;-73
2023/12/21 16:40:27;;;;;;;1.13;0.60;;;;;;;10.03;59.84;97993.16;10524386;28;20178;-72
2023/12/21 16:45:29;;;;;;;1.50;0.60;;;;;;;9.86;60.32;98006.84;10507186;28;20052;-72
2023/12/21 16:50:33;;;;;;;0.50;0.45;;;;;;;9.88;59.94;98002.31;10508476;28;20059;-73
2023/12/21 16:55:35;;;;;;;1.30;0.70;;;;;;;9.78;60.18;97986.66;10488274;28;20036;-72
2023/12/21 17:00:37;;;;;;;2.10;0.57;;;;;;;9.54;60.19;98013.03;10506381;28;20855;-73
2023/12/21 17:05:39;;;;;;;1.35;0.70;;;;;;;9.18;61.45;97984.88;10505312;28;20135;-68
2023/12/21 17:10:42;;;;;;;0.60;0.50;;;;;;;9.06;61.48;97982.47;10507675;28;20044;-66
2023/12/21 17:15:45;;;;;;;0.98;0.85;;;;;;;9.08;61.34;97991.81;10508781;28;20051;-65
2023/12/21 17:20:47;;;;;;;2.22;1.10;;;;;;;9.05;61.35;97994.72;10514078;28;20509;-66
2023/12/21 17:25:49;;;;;;;1.25;0.82;;;;;;;9.01;60.85;98001.13;10511199;28;20068;-66
2023/12/21 17:30:53;;;;;;;2.53;1.20;;;;;;;9.01;61.04;98006.34;10512262;28;20044;-66
2023/12/21 17:35:55;;;;;;;1.88;0.85;;;;;;;9.07;60.40;98003.22;10513396;28;20119;-66
2023/12/21 17:40:57;;;;;;;4.32;1.25;;;;;;;9.12;59.92;97995.81;10515589;28;20428;-66
2023/12/21 17:46:01;;;;;;;2.05;0.82;;;;;;;9.10;60.13;97984.69;10516032;28;21231;-66
2023/12/21 17:51:03;;;;;;;2.92;0.95;;;;;;;9.19;59.13;97986.53;10515978;28;20051;-66
2023/12/21 17:56:05;;;;;;;2.40;0.90;;;;;;;9.40;58.79;97992.53;10512463;28;20040;-66
2023/12/21 18:01:07;;;;;;;4.75;0.93;;;;;;;9.58;58.72;98037.91;10514460;28;20405;-66
2023/12/21 18:06:09;;;;;;;0.70;0.57;;;;;;;9.57;57.40;98051.09;10514296;28;20225;-66
2023/12/21 18:11:11;;;;;;;1.05;0.50;;;;;;;9.17;58.79;98151.91;10513287;28;20052;-67
2023/12/21 18:16:13;;;;;;;1.77;0.85;;;;;;;7.83;63.22;98195.56;10514334;28;20462;-66
2023/12/21 18:21:16;;;;;;;0.70;0.52;;;;;;;7.16;64.66;98183.38;10514135;28;20055;-66
2023/12/21 18:26:18;;;;;;;1.63;0.90;;;;;;;6.97;64.20;98159.66;10513956;28;20400;-66
2023/12/21 18:31:20;;;;;;;0.52;0.52;;;;;;;6.88;64.98;98149.91;10511618;28;20223;-67
2023/12/21 18:36:22;;;;;;;1.88;0.90;;;;;;;6.92;64.98;98156.56;10512559;28;20044;-66
2023/12/21 18:41:24;;;;;;;1.92;0.80;;;;;;;6.87;66.09;98205.44;10513134;28;20496;-67
2023/12/21 18:46:26;;;;;;;1.30;0.77;;;;;;;6.89;65.82;98182.78;10509295;28;20058;-67
2023/12/21 18:51:29;;;;;;;0.30;0.30;;;;;;;7.06;65.55;98143.41;10494631;28;20578;-66
2023/12/21 18:56:32;;;;;;;0.52;0.52;;;;;;;7.15;65.35;98163.50;10511422;28;20152;-66
2023/12/21 19:01:34;;;;;;;0.68;0.55;;;;;;;7.28;65.78;98163.44;10493659;28;20535;-67
2023/12/21 19:06:36;;;;;;;1.58;0.50;;;;;;;7.36;65.46;98158.47;10493152;28;20048;-66
2023/12/21 19:11:38;;;;;;;2.47;0.70;;;;;;;7.47;65.23;98153.31;10511608;28;20408;-67
2023/12/21 19:16:44;;;;;;;5.60;0.88;;;;;;;7.47;65.36;98120.31;10512180;28;20048;-67
2023/12/21 19:21:46;;;;;;;2.42;0.85;;;;;;;7.54;65.20;98133.69;10509107;28;20044;-65
2023/12/21 19:26:54;;;;;;;4.57;0.90;;;;;;;7.58;65.23;98120.34;10507974;28;20123;-67
2023/12/21 19:31:57;;;;;;;1.80;0.90;;;;;;;7.74;64.94;98110.41;10501956;28;20102;-66
2023/12/21 19:37:00;;;;;;;3.38;1.15;;;;;;;7.97;64.67;98132.91;10522715;27;20047;-66
2023/12/21 19:42:03;;;;;;;3.63;0.82;;;;;;;7.36;68.31;98265.09;10502928;28;20396;-66
2023/12/21 19:47:07;;;;;;;3.65;1.25;;;;;;;6.82;66.15;98364.25;10487016;28;20044;-65
2023/12/21 19:52:10;;;;;;;1.20;0.50;;;;;;;6.31;66.98;98392.00;10487552;28;20040;-66
2023/12/21 19:57:12;;;;;;;0.60;0.50;;;;;;;5.82;65.25;98406.50;10500900;28;20369;-66
2023/12/21 20:02:16;;;;;;;1.02;0.70;;;;;;;5.82;64.25;98367.59;10481816;28;20062;-66
2023/12/21 20:07:18;;;;;;;3.28;1.02;;;;;;;5.85;64.22;98390.75;10502477;28;20336;-66
2023/12/21 20:12:21;;;;;;;1.15;0.55;;;;;;;5.85;63.82;98370.00;10490059;28;20035;-65
2023/12/21 20:17:23;;;;;;;0.57;0.50;;;;;;;5.93;63.57;98352.16;10508315;28;20522;-65
2023/12/21 20:22:25;;;;;;;2.17;1.05;;;;;;;5.91;63.30;98342.81;10508089;28;20044;-65
2023/12/21 20:27:27;;;;;;;1.10;1.02;;;;;;;5.84;63.02;98370.91;10509787;28;20055;-65
2023/12/21 20:32:31;;;;;;;1.55;0.82;;;;;;;5.52;63.12;98359.22;10490239;28;20055;-65
2023/12/21 20:37:33;;;;;;;2.28;1.25;;;;;;;5.48;61.50;98361.19;10507788;28;20071;-65
2023/12/21 20:42:35;;;;;;;2.38;1.17;;;;;;;5.40;62.64;98398.88;10506608;28;20039;-66
2023/12/21 20:47:37;;;;;;;1.48;0.93;;;;;;;5.02;65.65;98411.63;10509333;28;20491;-66
2023/12/21 20:52:39;;;;;;;1.08;0.70;;;;;;;5.21;64.30;98427.69;10508162;28;20499;-65
2023/12/21 20:57:43;;;;;;;2.03;0.77;;;;;;;5.03;65.19;98477.22;10488631;28;20052;-66
2023/12/21 21:02:45;;;;;;;1.33;0.70;;;;;;;5.03;65.20;98446.13;10506562;28;20048;-66
2023/12/21 21:07:47;;;;;;;1.55;0.90;;;;;;;4.80;65.39;98449.28;10507550;28;20047;-66
2023/12/21 21:12:50;;;;;;;2.90;1.35;;;;;;;4.75;65.89;98454.75;10511143;28;20051;-65
2023/12/21 21:17:52;;;;;;;0.80;0.70;;;;;;;4.80;65.65;98455.28;10511554;28;20419;-68
2023/12/21 21:22:54;;;;;;;0.93;0.70;;;;;;;4.58;65.96;98457.47;10510001;28;20040;-66
2023/12/21 21:27:56;;;;;;;1.95;0.70;;;;;;;4.64;65.51;98454.53;10510029;28;20051;-66
2023/12/21 21:32:58;;;;;;;1.08;0.60;;;;;;;4.63;65.58;98497.75;10510370;28;20204;-66
2023/12/21 21:38:00;;;;;;;2.63;0.70;;;;;;;4.56;65.65;98472.28;10511515;28;20109;-65
2023/12/21 21:43:02;;;;;;;0.73;0.60;;;;;;;4.56;66.06;98500.75;10495541;28;20047;-65
2023/12/21 21:48:04;;;;;;;0.85;0.45;;;;;;;4.64;65.77;98496.81;10494937;28;20079;-65
2023/12/21 21:53:07;;;;;;;1.48;0.40;;;;;;;4.57;65.76;98500.69;10509547;28;21207;-65
2023/12/21 21:58:10;;;;;;;0.95;0.60;;;;;;;4.39;66.44;98452.53;10509312;28;20048;-65
2023/12/21 22:03:12;;;;;;;1.95;0.57;;;;;;;4.34;66.92;98464.94;10516017;28;20040;-64
2023/12/21 22:08:16;;;;;;;0.68;0.68;;;;;;;4.32;67.62;98489.22;10519457;28;20451;-65
2023/12/21 22:13:18;;;;;;;1.60;0.50;;;;;;;4.46;66.86;98522.91;10518901;28;20043;-64
2023/12/21 22:18:20;;;;;;;2.00;0.55;;;;;;;4.53;66.84;98524.25;10520074;28;20330;-65
2023/12/21 22:23:22;;;;;;;1.33;0.38;;;;;;;4.60;66.99;98530.72;10520167;28;20052;-65
2023/12/21 22:28:24;;;;;;;0.43;0.43;;;;;;;4.61;67.30;98542.75;10500623;28;20052;-66
2023/12/21 22:33:26;;;;;;;3.10;0.60;;;;;;;4.66;67.25;98535.53;10515286;28;20412;-65
2023/12/21 22:38:28;;;;;;;1.17;0.40;;;;;;;4.94;66.81;98504.53;10518043;28;20078;-64
2023/12/21 22:43:31;;;;;;;2.13;0.60;;;;;;;4.97;66.51;98475.84;10517722;28;20127;-65
2023/12/21 22:48:44;;;;;;;1.02;0.55;;;;;;;5.06;66.29;98497.78;10518919;28;20063;-65
2023/12/21 22:53:46;;;;;;;0.40;0.38;;;;;;;5.16;66.12;98504.91;10499780;28;20399;-65
2023/12/21 22:58:48;;;;;;;0.50;0.50;;;;;;;5.09;66.17;98493.25;10518404;28;20139;-64
2023/12/21 23:03:50;;;;;;;2.30;0.80;;;;;;;5.19;66.13;98489.16;10517931;28;20055;-65
2023/12/21 23:08:52;;;;;;;0.50;0.40;;;;;;;5.21;66.43;98499.44;10533582;28;20732;-65
2023/12/21 23:13:54;;;;;;;0.60;0.50;;;;;;;5.11;66.54;98504.34;10514736;28;20121;-64
2023/12/21 23:18:59;;;;;;;1.08;0.50;;;;;;;5.24;66.50;98487.13;10516940;28;20068;-64
2023/12/21 23:24:01;;;;;;;0.40;0.40;;;;;;;5.22;66.57;98508.88;10517472;28;20048;-64
2023/12/21 23:29:03;;;;;;;1.77;1.10;;;;;;;5.23;66.88;98510.53;10516383;28;20044;-64
2023/12/21 23:34:05;;;;;;;2.78;0.82;;;;;;;5.25;66.64;98490.53;10516870;28;20056;-63
2023/12/21 23:39:08;;;;;;;0.60;0.60;;;;;;;5.22;67.36;98488.16;10516689;28;20071;-64